| time (UTC) | temp F | wind direction | speed MPH | gust MPH | rain 1hr in | rain 24hr in | rain mn in | humidity % | barometer mb |
| 20260906171136 | 100 | 65 | 1.0 | 4.0 | 0.00 | 0.00 | 0.00 | 39 | 1055.1 |
| 20260906170632 | 99 | 150 | 4.0 | 9.0 | 0.00 | 0.00 | 0.00 | 42 | 1055.0 |
| 20260906170131 | 99 | 123 | 5.0 | 8.0 | 0.00 | 0.00 | 0.00 | 41 | 1055.2 |
| 20260906165627 | 100 | 76 | 4.0 | 6.0 | 0.00 | 0.00 | 0.00 | 40 | 1055.2 |
| 20260906165123 | 100 | 265 | 2.0 | 5.0 | 0.00 | 0.00 | 0.00 | 40 | 1055.1 |
| 20260906164621 | 101 | 80 | 6.0 | 6.0 | 0.00 | 0.00 | 0.00 | 40 | 1055.3 |
| 20260906164117 | 100 | 101 | 8.0 | 9.0 | 0.00 | 0.00 | 0.00 | 41 | 1055.4 |
| 20260906163613 | 99 | 355 | 3.0 | 7.0 | 0.00 | 0.00 | 0.00 | 41 | 1055.5 |
| 20260906163108 | 99 | 105 | 3.0 | 9.0 | 0.00 | 0.00 | 0.00 | 43 | 1055.4 |
| 20260906162605 | 100 | 93 | 4.0 | 8.0 | 0.00 | 0.00 | 0.00 | 42 | 1055.3 |
| 20260906162100 | 101 | 340 | 2.0 | 5.0 | 0.00 | 0.00 | 0.00 | 42 | 1055.5 |
| 20260906161555 | 100 | 8 | 1.0 | 4.0 | 0.00 | 0.00 | 0.00 | 43 | 1055.4 |
| 20260906161054 | 99 | 182 | 1.0 | 4.0 | 0.00 | 0.00 | 0.00 | 45 | 1055.4 |
| 20260906160553 | 97 | 78 | 3.0 | 5.0 | 0.00 | 0.00 | 0.00 | 48 | 1055.5 |
| 20260906160052 | 96 | 61 | 3.0 | 6.0 | 0.00 | 0.00 | 0.00 | 47 | 1055.6 |
| 20260906155549 | 96 | 140 | 5.0 | 5.0 | 0.00 | 0.00 | 0.00 | 48 | 1055.6 |
| 20260906155046 | 96 | 111 | 8.0 | 9.0 | 0.00 | 0.00 | 0.00 | 49 | 1055.6 |
| 20260906154541 | 95 | 55 | 3.0 | 5.0 | 0.00 | 0.00 | 0.00 | 50 | 1055.5 |
| 20260906154039 | 95 | 77 | 4.0 | 5.0 | 0.00 | 0.00 | 0.00 | 51 | 1055.5 |
| 20260906153538 | 95 | 110 | 4.0 | 5.0 | 0.00 | 0.00 | 0.00 | 50 | 1055.5 |
| 20260906153034 | 93 | 83 | 2.0 | 6.0 | 0.00 | 0.00 | 0.00 | 52 | 1055.5 |
| 20260906152533 | 94 | 73 | 4.0 | 7.0 | 0.00 | 0.00 | 0.00 | 51 | 1055.2 |
| 20260906152033 | 93 | 335 | 0.0 | 3.0 | 0.00 | 0.00 | 0.00 | 53 | 1055.5 |
| 20260906151528 | 92 | 73 | 4.0 | 4.0 | 0.00 | 0.00 | 0.00 | 54 | 1055.5 |
| 20260906151024 | 93 | 84 | 4.0 | 6.0 | 0.00 | 0.00 | 0.00 | 53 | 1055.6 |
| 20260906150519 | 92 | 68 | 4.0 | 6.0 | 0.00 | 0.00 | 0.00 | 54 | 1055.4 |
| 20260906150014 | 91 | 125 | 2.0 | 4.0 | 0.00 | 0.00 | 0.00 | 55 | 1055.5 |
| 20260906145513 | 90 | 122 | 0.0 | 4.0 | 0.00 | 0.00 | 0.00 | 57 | 1055.5 |
| 20260906145008 | 90 | 89 | 2.0 | 4.0 | 0.00 | 0.00 | 0.00 | 57 | 1055.4 |
| 20260906144502 | 89 | 131 | 3.0 | 5.0 | 0.00 | 0.00 | 0.00 | 57 | 1055.5 |
| 20260906143958 | 89 | 170 | 3.0 | 4.0 | 0.00 | 0.00 | 0.00 | 58 | 1055.3 |
| 20260906143453 | 89 | 125 | 2.0 | 4.0 | 0.00 | 0.00 | 0.00 | 59 | 1055.5 |
| 20260906142949 | 88 | 80 | 1.0 | 4.0 | 0.00 | 0.00 | 0.00 | 60 | 1055.5 |
| 20260906142448 | 88 | 79 | 2.0 | 4.0 | 0.00 | 0.00 | 0.00 | 61 | 1055.4 |
| 20260906141944 | 87 | 81 | 3.0 | 5.0 | 0.00 | 0.00 | 0.00 | 61 | 1055.3 |
| 20260906141443 | 86 | 84 | 4.0 | 5.0 | 0.00 | 0.00 | 0.00 | 62 | 1055.4 |
| 20260906140938 | 86 | 31 | 0.0 | 5.0 | 0.00 | 0.00 | 0.00 | 63 | 1055.5 |
| 20260906140433 | 86 | 73 | 5.0 | 5.0 | 0.00 | 0.00 | 0.00 | 62 | 1055.2 |
| 20260906135931 | 86 | 80 | 3.0 | 6.0 | 0.00 | 0.00 | 0.00 | 63 | 1055.4 |
| 20260906135430 | 86 | 88 | 4.0 | 4.0 | 0.00 | 0.00 | 0.00 | 63 | 1055.3 |
| 20260906134926 | 84 | 71 | 2.0 | 4.0 | 0.00 | 0.00 | 0.00 | 64 | 1055.3 |
| 20260906134421 | 84 | 97 | 1.0 | 3.0 | 0.00 | 0.00 | 0.00 | 66 | 1055.4 |
| 20260906133915 | 83 | 89 | 0.0 | 4.0 | 0.00 | 0.00 | 0.00 | 67 | 1055.3 |
| 20260906133411 | 83 | 67 | 2.0 | 4.0 | 0.00 | 0.00 | 0.00 | 69 | 1055.4 |
| 20260906132907 | 82 | 72 | 2.0 | 3.0 | 0.00 | 0.00 | 0.00 | 70 | 1055.4 |
| 20260906132402 | 82 | 104 | 2.0 | 3.0 | 0.00 | 0.00 | 0.00 | 70 | 1055.4 |
| 20260906131857 | 81 | 89 | 0.0 | 2.0 | 0.00 | 0.00 | 0.00 | 73 | 1055.3 |
| 20260906131353 | 80 | 96 | 2.0 | 2.0 | 0.00 | 0.00 | 0.00 | 73 | 1055.3 |
| 20260906130848 | 80 | 84 | 1.0 | 2.0 | 0.00 | 0.00 | 0.00 | 74 | 1055.2 |
| 20260906130348 | 80 | 127 | 1.0 | 2.0 | 0.00 | 0.00 | 0.00 | 74 | 1055.3 |
| 20260906125847 | 79 | 7 | 1.0 | 1.0 | 0.00 | 0.00 | 0.00 | 75 | 1055.1 |
| 20260906125344 | 78 | 77 | 1.0 | 2.0 | 0.00 | 0.00 | 0.00 | 78 | 1055.2 |
| 20260906124839 | 77 | 67 | 2.0 | 3.0 | 0.00 | 0.00 | 0.00 | 80 | 1055.0 |
| 20260906124335 | 76 | 89 | 0.0 | 2.0 | 0.00 | 0.00 | 0.00 | 85 | 1055.1 |
| 20260906123834 | 74 | 152 | 0.0 | 2.0 | 0.00 | 0.00 | 0.00 | 87 | 1055.1 |
| 20260906123329 | 73 | 111 | 1.0 | 2.0 | 0.00 | 0.00 | 0.00 | 91 | 1054.9 |
| 20260906122829 | 71 | 79 | 0.0 | 2.0 | 0.00 | 0.00 | 0.00 | 92 | 1054.7 |
| 20260906122324 | 70 | 7 | 1.0 | 2.0 | 0.00 | 0.00 | 0.00 | 92 | 1054.7 |
| 20260906121821 | 69 | 30 | 2.0 | 2.0 | 0.00 | 0.00 | 0.00 | 92 | 1054.9 |
| 20260906121316 | 69 | 132 | 0.0 | 1.0 | 0.00 | 0.00 | 0.00 | 92 | 1054.7 |
| 20260906120813 | 69 | 142 | 0.0 | 1.0 | 0.00 | 0.00 | 0.00 | 92 | 1054.7 |
| 20260906120308 | 69 | 96 | 0.0 | 1.0 | 0.00 | 0.00 | 0.00 | 92 | 1054.7 |
| 20260906115804 | 68 | 145 | 0.0 | 1.0 | 0.00 | 0.00 | 0.00 | 92 | 1054.6 |
| 20260906115259 | 69 | 27 | 1.0 | 2.0 | 0.00 | 0.00 | 0.00 | 93 | 1054.8 |
| 20260906114759 | 69 | 5 | 1.0 | 2.0 | 0.00 | 0.00 | 0.00 | 93 | 1054.7 |
| 20260906114254 | 69 | 58 | 0.0 | 1.0 | 0.00 | 0.00 | 0.00 | 93 | 1054.6 |
| 20260906113749 | 69 | 63 | 1.0 | 2.0 | 0.00 | 0.00 | 0.00 | 92 | 1054.5 |
| 20260906113249 | 69 | 38 | 0.0 | 2.0 | 0.00 | 0.00 | 0.00 | 92 | 1054.5 |
| 20260906112748 | 69 | 9 | 0.0 | 2.0 | 0.00 | 0.00 | 0.00 | 92 | 1054.5 |
| 20260906112245 | 69 | 135 | 0.0 | 2.0 | 0.00 | 0.00 | 0.00 | 92 | 1054.5 |
| 20260906111744 | 69 | 89 | 0.0 | 0.0 | 0.00 | 0.00 | 0.00 | 92 | 1054.2 |
| 20260906111244 | 69 | 81 | 0.0 | 2.0 | 0.00 | 0.00 | 0.00 | 92 | 1054.3 |
| 20260906110739 | 69 | 80 | 0.0 | 1.0 | 0.00 | 0.00 | 0.00 | 91 | 1054.3 |
| 20260906110235 | 69 | 131 | 1.0 | 2.0 | 0.00 | 0.00 | 0.00 | 92 | 1054.5 |
| 20260906105734 | 69 | 96 | 2.0 | 2.0 | 0.00 | 0.00 | 0.00 | 92 | 1054.3 |
| 20260906105230 | 69 | 51 | 0.0 | 2.0 | 0.00 | 0.00 | 0.00 | 92 | 1054.2 |
| 20260906104725 | 69 | 20 | 1.0 | 2.0 | 0.00 | 0.00 | 0.00 | 92 | 1054.2 |
| 20260906104224 | 69 | 345 | 0.0 | 0.0 | 0.00 | 0.00 | 0.00 | 92 | 1054.3 |
| 20260906103721 | 69 | 293 | 0.0 | 1.0 | 0.00 | 0.00 | 0.00 | 91 | 1054.5 |
| 20260906103216 | 69 | 348 | 0.0 | 2.0 | 0.00 | 0.00 | 0.00 | 90 | 1054.3 |
| 20260906102712 | 69 | 212 | 0.0 | 1.0 | 0.00 | 0.00 | 0.00 | 91 | 1054.5 |
| 20260906102211 | 69 | 173 | 0.0 | 2.0 | 0.00 | 0.00 | 0.00 | 91 | 1054.4 |
| 20260906101706 | 70 | 132 | 1.0 | 2.0 | 0.00 | 0.00 | 0.00 | 90 | 1054.3 |
| 20260906101201 | 70 | 25 | 2.0 | 4.0 | 0.00 | 0.00 | 0.00 | 90 | 1054.3 |
| 20260906100656 | 70 | 123 | 0.0 | 2.0 | 0.00 | 0.00 | 0.00 | 90 | 1054.1 |
| 20260906100156 | 70 | 101 | 0.0 | 2.0 | 0.00 | 0.00 | 0.00 | 90 | 1054.2 |
| 20260906095651 | 70 | 36 | 0.0 | 2.0 | 0.00 | 0.00 | 0.00 | 90 | 1054.0 |
| 20260906095147 | 70 | 310 | 0.0 | 0.0 | 0.00 | 0.00 | 0.00 | 90 | 1054.0 |
| 20260906094645 | 70 | 66 | 0.0 | 0.0 | 0.00 | 0.00 | 0.00 | 89 | 1054.1 |
| 20260906094141 | 70 | 15 | 0.0 | 0.0 | 0.00 | 0.00 | 0.00 | 89 | 1053.9 |
| 20260906093638 | 70 | 15 | 0.0 | 0.0 | 0.00 | 0.00 | 0.00 | 90 | 1053.9 |
| 20260906093137 | 70 | 15 | 0.0 | 0.0 | 0.00 | 0.00 | 0.00 | 89 | 1053.9 |
| 20260906092632 | 70 | 89 | 0.0 | 0.0 | 0.00 | 0.00 | 0.00 | 89 | 1054.0 |
| 20260906092127 | 71 | 89 | 0.0 | 0.0 | 0.00 | 0.00 | 0.00 | 89 | 1053.7 |
| 20260906091623 | 71 | 89 | 0.0 | 0.0 | 0.00 | 0.00 | 0.00 | 89 | 1053.7 |
| 20260906091120 | 71 | 89 | 0.0 | 0.0 | 0.00 | 0.00 | 0.00 | 89 | 1053.7 |
| 20260906090614 | 71 | 50 | 0.0 | 1.0 | 0.00 | 0.00 | 0.00 | 89 | 1053.7 |
| 20260906090114 | 71 | 89 | 0.0 | 0.0 | 0.00 | 0.00 | 0.00 | 89 | 1053.6 |
| 20260906085613 | 71 | 50 | 0.0 | 0.0 | 0.00 | 0.00 | 0.00 | 89 | 1053.6 |
| 20260906085108 | 70 | 5 | 0.0 | 1.0 | 0.00 | 0.00 | 0.00 | 89 | 1053.4 |
| 20260906084602 | 70 | 230 | 0.0 | 0.0 | 0.00 | 0.00 | 0.00 | 88 | 1053.6 |
| 20260906084101 | 71 | 230 | 0.0 | 0.0 | 0.00 | 0.00 | 0.00 | 88 | 1053.5 |
| 20260906083557 | 71 | 119 | 0.0 | 0.0 | 0.00 | 0.00 | 0.00 | 88 | 1053.8 |
| 20260906083056 | 71 | 89 | 0.0 | 2.0 | 0.00 | 0.00 | 0.00 | 87 | 1053.5 |
| 20260906082552 | 71 | 129 | 0.0 | 0.0 | 0.00 | 0.00 | 0.00 | 87 | 1053.5 |
| 20260906082048 | 71 | 142 | 0.0 | 0.0 | 0.00 | 0.00 | 0.00 | 87 | 1053.5 |
| 20260906081543 | 71 | 142 | 0.0 | 0.0 | 0.00 | 0.00 | 0.00 | 87 | 1053.6 |
| 20260906081039 | 71 | 142 | 0.0 | 0.0 | 0.00 | 0.00 | 0.00 | 87 | 1053.3 |
| 20260906080535 | 72 | 142 | 0.0 | 0.0 | 0.00 | 0.00 | 0.00 | 86 | 1053.6 |
| 20260906080031 | 72 | 142 | 0.0 | 0.0 | 0.00 | 0.00 | 0.00 | 86 | 1053.4 |
| 20260906075531 | 72 | 136 | 0.0 | 1.0 | 0.00 | 0.00 | 0.00 | 86 | 1053.4 |
| 20260906075026 | 72 | 147 | 0.0 | 0.0 | 0.00 | 0.00 | 0.00 | 86 | 1053.5 |
| 20260906074521 | 72 | 147 | 0.0 | 0.0 | 0.00 | 0.00 | 0.00 | 86 | 1053.6 |
| 20260906074019 | 72 | 129 | 0.0 | 0.0 | 0.00 | 0.00 | 0.00 | 85 | 1053.4 |
| 20260906073514 | 72 | 269 | 0.0 | 0.0 | 0.00 | 0.00 | 0.00 | 86 | 1053.6 |
| 20260906073010 | 72 | 235 | 0.0 | 0.0 | 0.00 | 0.00 | 0.00 | 85 | 1053.6 |
| 20260906072505 | 72 | 164 | 0.0 | 0.0 | 0.00 | 0.00 | 0.00 | 85 | 1053.7 |
| 20260906072001 | 72 | 164 | 0.0 | 0.0 | 0.00 | 0.00 | 0.00 | 85 | 1053.5 |
| 20260906071457 | 72 | 50 | 0.0 | 0.0 | 0.00 | 0.00 | 0.00 | 85 | 1053.7 |
| 20260906070952 | 72 | 50 | 0.0 | 0.0 | 0.00 | 0.00 | 0.00 | 85 | 1053.9 |
| 20260906070448 | 72 | 142 | 0.0 | 0.0 | 0.00 | 0.00 | 0.00 | 84 | 1053.8 |
| 20260906065944 | 72 | 117 | 0.0 | 0.0 | 0.00 | 0.00 | 0.00 | 84 | 1053.9 |
| 20260906065443 | 73 | 322 | 0.0 | 0.0 | 0.00 | 0.00 | 0.00 | 84 | 1053.6 |
| 20260906064940 | 73 | 142 | 0.0 | 0.0 | 0.00 | 0.00 | 0.00 | 84 | 1054.0 |
| 20260906064436 | 73 | 142 | 0.0 | 1.0 | 0.00 | 0.00 | 0.00 | 83 | 1054.0 |
| 20260906063935 | 73 | 333 | 0.0 | 0.0 | 0.00 | 0.00 | 0.00 | 83 | 1053.9 |
| 20260906063431 | 73 | 333 | 0.0 | 0.0 | 0.00 | 0.00 | 0.00 | 83 | 1054.0 |
| 20260906062926 | 73 | 89 | 0.0 | 0.0 | 0.00 | 0.00 | 0.00 | 83 | 1054.2 |
| 20260906062426 | 73 | 89 | 0.0 | 0.0 | 0.00 | 0.00 | 0.00 | 83 | 1054.0 |
| 20260906061921 | 73 | 151 | 0.0 | 1.0 | 0.00 | 0.00 | 0.00 | 82 | 1054.0 |
| 20260906061417 | 73 | 136 | 1.0 | 1.0 | 0.00 | 0.00 | 0.00 | 82 | 1054.1 |
| 20260906060911 | 74 | 153 | 0.0 | 0.0 | 0.00 | 0.00 | 0.00 | 82 | 1054.2 |
| 20260906060409 | 74 | 322 | 0.0 | 0.0 | 0.00 | 0.00 | 0.00 | 82 | 1054.1 |
| 20260906055905 | 74 | 322 | 0.0 | 0.0 | 0.00 | 0.00 | 0.00 | 81 | 1053.9 |
| 20260906055401 | 74 | 322 | 0.0 | 0.0 | 0.00 | 0.00 | 0.00 | 81 | 1054.1 |
| 20260906054856 | 74 | 124 | 0.0 | 0.0 | 0.00 | 0.00 | 0.00 | 80 | 1054.3 |
| 20260906054350 | 74 | 124 | 0.0 | 0.0 | 0.00 | 0.00 | 0.00 | 80 | 1054.1 |
| 20260906053847 | 75 | 205 | 0.0 | 0.0 | 0.00 | 0.00 | 0.00 | 80 | 1054.1 |
| 20260906053342 | 75 | 15 | 0.0 | 0.0 | 0.00 | 0.00 | 0.00 | 79 | 1054.1 |
| 20260906052837 | 75 | 44 | 0.0 | 1.0 | 0.00 | 0.00 | 0.00 | 79 | 1054.1 |
| 20260906052334 | 75 | 32 | 0.0 | 0.0 | 0.00 | 0.00 | 0.00 | 79 | 1054.0 |
| 20260906051831 | 75 | 130 | 0.0 | 0.0 | 0.00 | 0.00 | 0.00 | 79 | 1054.1 |
| 20260906051330 | 75 | 29 | 0.0 | 0.0 | 0.00 | 0.00 | 0.00 | 79 | 1053.8 |
| 20260906050826 | 75 | 336 | 0.0 | 0.0 | 0.00 | 0.00 | 0.00 | 79 | 1053.9 |
| 20260906050321 | 75 | 343 | 0.0 | 0.0 | 0.00 | 0.00 | 0.00 | 79 | 1053.8 |
| 20260906045819 | 75 | 343 | 0.0 | 1.0 | 0.00 | 0.00 | 0.00 | 79 | 1053.9 |
| 20260906045314 | 75 | 217 | 0.0 | 0.0 | 0.00 | 0.00 | 0.00 | 78 | 1054.0 |
| 20260906044811 | 76 | 242 | 0.0 | 1.0 | 0.00 | 0.00 | 0.00 | 77 | 1054.1 |
| 20260906044305 | 76 | 230 | 0.0 | 0.0 | 0.00 | 0.00 | 0.00 | 76 | 1054.2 |
| 20260906043801 | 76 | 284 | 0.0 | 0.0 | 0.00 | 0.00 | 0.00 | 76 | 1054.3 |
| 20260906043257 | 76 | 25 | 0.0 | 0.0 | 0.00 | 0.00 | 0.00 | 76 | 1054.1 |
| 20260906042756 | 76 | 25 | 0.0 | 0.0 | 0.00 | 0.00 | 0.00 | 76 | 1054.2 |
| 20260906042256 | 76 | 25 | 0.0 | 0.0 | 0.00 | 0.00 | 0.00 | 75 | 1054.3 |
| 20260906041751 | 77 | 25 | 0.0 | 0.0 | 0.00 | 0.00 | 0.00 | 75 | 1054.1 |
| 20260906041246 | 77 | 25 | 0.0 | 0.0 | 0.00 | 0.00 | 0.00 | 74 | 1054.1 |
| 20260906040742 | 77 | 50 | 0.0 | 0.0 | 0.00 | 0.00 | 0.00 | 74 | 1054.1 |
| 20260906040237 | 77 | 50 | 0.0 | 0.0 | 0.00 | 0.00 | 0.00 | 73 | 1054.2 |
| 20260906035732 | 77 | 50 | 0.0 | 0.0 | 0.00 | 0.00 | 0.00 | 74 | 1054.0 |
| 20260906035228 | 77 | 297 | 0.0 | 0.0 | 0.00 | 0.00 | 0.00 | 74 | 1053.9 |
| 20260906034728 | 77 | 255 | 0.0 | 0.0 | 0.00 | 0.00 | 0.00 | 74 | 1054.1 |
| 20260906034223 | 77 | 217 | 0.0 | 0.0 | 0.00 | 0.00 | 0.00 | 73 | 1054.0 |
| 20260906033719 | 78 | 62 | 0.0 | 0.0 | 0.00 | 0.00 | 0.00 | 72 | 1054.0 |
| 20260906033218 | 78 | 62 | 0.0 | 0.0 | 0.00 | 0.00 | 0.00 | 72 | 1053.9 |
| 20260906032715 | 78 | 44 | 0.0 | 0.0 | 0.00 | 0.00 | 0.00 | 71 | 1053.9 |
| 20260906032215 | 78 | 44 | 0.0 | 0.0 | 0.00 | 0.00 | 0.00 | 70 | 1053.7 |
| 20260906031710 | 79 | 44 | 0.0 | 0.0 | 0.00 | 0.00 | 0.00 | 70 | 1053.8 |
| 20260906031206 | 79 | 130 | 0.0 | 0.0 | 0.00 | 0.00 | 0.00 | 69 | 1053.7 |
| 20260906030705 | 79 | 154 | 0.0 | 0.0 | 0.00 | 0.00 | 0.00 | 69 | 1053.7 |
| 20260906030200 | 79 | 154 | 0.0 | 0.0 | 0.00 | 0.00 | 0.00 | 69 | 1053.5 |
| 20260906025659 | 80 | 135 | 0.0 | 0.0 | 0.00 | 0.00 | 0.00 | 68 | 1053.7 |
| 20260906025153 | 80 | 217 | 0.0 | 0.0 | 0.00 | 0.00 | 0.00 | 68 | 1053.3 |
| 20260906024648 | 80 | 309 | 0.0 | 0.0 | 0.00 | 0.00 | 0.00 | 67 | 1053.5 |
| 20260906024147 | 80 | 195 | 0.0 | 0.0 | 0.00 | 0.00 | 0.00 | 67 | 1053.1 |
| 20260906023643 | 80 | 195 | 0.0 | 0.0 | 0.00 | 0.00 | 0.00 | 67 | 1053.5 |
| 20260906023143 | 81 | 195 | 0.0 | 0.0 | 0.00 | 0.00 | 0.00 | 67 | 1053.1 |
| 20260906022638 | 81 | 217 | 0.0 | 0.0 | 0.00 | 0.00 | 0.00 | 66 | 1053.1 |
| 20260906022134 | 81 | 235 | 0.0 | 0.0 | 0.00 | 0.00 | 0.00 | 66 | 1053.4 |
| 20260906021630 | 81 | 235 | 0.0 | 0.0 | 0.00 | 0.00 | 0.00 | 65 | 1053.0 |
| 20260906021129 | 82 | 235 | 0.0 | 0.0 | 0.00 | 0.00 | 0.00 | 64 | 1052.9 |
| 20260906020628 | 82 | 235 | 0.0 | 0.0 | 0.00 | 0.00 | 0.00 | 64 | 1052.8 |
| 20260906020123 | 82 | 103 | 0.0 | 0.0 | 0.00 | 0.00 | 0.00 | 64 | 1052.7 |
| 20260906015618 | 82 | 309 | 0.0 | 0.0 | 0.00 | 0.00 | 0.00 | 64 | 1052.8 |
| 20260906015116 | 82 | 50 | 0.0 | 0.0 | 0.00 | 0.00 | 0.00 | 63 | 1052.7 |
| 20260906014611 | 83 | 50 | 0.0 | 0.0 | 0.00 | 0.00 | 0.00 | 63 | 1052.6 |
| 20260906014108 | 83 | 224 | 0.0 | 1.0 | 0.00 | 0.00 | 0.00 | 62 | 1052.7 |
| 20260906013603 | 83 | 217 | 0.0 | 0.0 | 0.00 | 0.00 | 0.00 | 62 | 1052.6 |
| 20260906013058 | 83 | 315 | 0.0 | 1.0 | 0.00 | 0.00 | 0.00 | 62 | 1052.5 |
| 20260906012553 | 84 | 119 | 2.0 | 2.0 | 0.00 | 0.00 | 0.00 | 61 | 1052.7 |
| 20260906012052 | 85 | 104 | 3.0 | 3.0 | 0.00 | 0.00 | 0.00 | 59 | 1052.3 |
| 20260906011549 | 86 | 50 | 0.0 | 0.0 | 0.00 | 0.00 | 0.00 | 57 | 1052.2 |
| 20260906011048 | 87 | 345 | 1.0 | 1.0 | 0.00 | 0.00 | 0.00 | 56 | 1052.2 |
| 20260906010544 | 87 | 6 | 0.0 | 0.0 | 0.00 | 0.00 | 0.00 | 54 | 1052.2 |
| 20260906010040 | 88 | 63 | 0.0 | 1.0 | 0.00 | 0.00 | 0.00 | 54 | 1052.3 |
| 20260906005539 | 89 | 11 | 0.0 | 0.0 | 0.00 | 0.00 | 0.00 | 53 | 1052.2 |
| 20260906005039 | 89 | 25 | 0.0 | 1.0 | 0.00 | 0.00 | 0.00 | 51 | 1052.2 |
| 20260906004538 | 91 | 104 | 0.0 | 1.0 | 0.00 | 0.00 | 0.00 | 49 | 1052.2 |
| 20260906004033 | 91 | 150 | 0.0 | 0.0 | 0.00 | 0.00 | 0.00 | 49 | 1052.3 |
| 20260906003528 | 92 | 184 | 1.0 | 2.0 | 0.00 | 0.00 | 0.00 | 47 | 1052.3 |
| 20260906003024 | 92 | 103 | 3.0 | 3.0 | 0.00 | 0.00 | 0.00 | 47 | 1052.3 |
| 20260906002519 | 93 | 153 | 4.0 | 5.0 | 0.00 | 0.00 | 0.00 | 46 | 1052.2 |
| 20260906002013 | 93 | 149 | 5.0 | 6.0 | 0.00 | 0.00 | 0.00 | 45 | 1052.2 |
| 20260906001509 | 94 | 159 | 2.0 | 8.0 | 0.00 | 0.00 | 0.00 | 45 | 1052.4 |
| 20260906001003 | 95 | 132 | 3.0 | 5.0 | 0.00 | 0.00 | 0.00 | 45 | 1052.4 |
| 20260906000459 | 96 | 149 | 4.0 | 5.0 | 0.00 | 0.00 | 0.00 | 43 | 1052.1 |
| 20260905235954 | 97 | 77 | 0.0 | 0.0 | 0.00 | 0.00 | 0.00 | 43 | 1052.1 |
| 20260905235454 | 97 | 77 | 0.0 | 0.0 | 0.00 | 0.00 | 0.00 | 43 | 1051.9 |
| 20260905234949 | 97 | 77 | 0.0 | 0.0 | 0.00 | 0.00 | 0.00 | 42 | 1052.0 |
| 20260905234445 | 98 | 77 | 0.0 | 0.0 | 0.00 | 0.00 | 0.00 | 41 | 1052.1 |
| 20260905233944 | 100 | 217 | 0.0 | 0.0 | 0.00 | 0.00 | 0.00 | 40 | 1051.8 |
| 20260905233440 | 102 | 1 | 0.0 | 1.0 | 0.00 | 0.00 | 0.00 | 37 | 1052.0 |
| 20260905232938 | 104 | 352 | 0.0 | 3.0 | 0.00 | 0.00 | 0.00 | 35 | 1051.8 |
| 20260905232435 | 104 | 130 | 0.0 | 1.0 | 0.00 | 0.00 | 0.00 | 35 | 1051.9 |
| 20260905231930 | 104 | 212 | 0.0 | 3.0 | 0.00 | 0.00 | 0.00 | 36 | 1051.9 |
| 20260905231426 | 104 | 357 | 1.0 | 2.0 | 0.00 | 0.00 | 0.00 | 34 | 1052.0 |
| 20260905230922 | 104 | 341 | 2.0 | 2.0 | 0.00 | 0.00 | 0.00 | 33 | 1051.8 |
| 20260905230420 | 105 | 313 | 1.0 | 1.0 | 0.00 | 0.00 | 0.00 | 33 | 1051.9 |
| 20260905225919 | 105 | 85 | 2.0 | 2.0 | 0.00 | 0.00 | 0.00 | 33 | 1051.9 |
| 20260905225414 | 104 | 120 | 1.0 | 3.0 | 0.00 | 0.00 | 0.00 | 34 | 1051.8 |
| 20260905224909 | 105 | 105 | 1.0 | 2.0 | 0.00 | 0.00 | 0.00 | 33 | 1051.8 |
| 20260905224405 | 104 | 119 | 0.0 | 2.0 | 0.00 | 0.00 | 0.00 | 35 | 1051.8 |
| 20260905223859 | 103 | 64 | 2.0 | 5.0 | 0.00 | 0.00 | 0.00 | 35 | 1052.0 |
| 20260905223358 | 104 | 122 | 1.0 | 2.0 | 0.00 | 0.00 | 0.00 | 35 | 1051.7 |
| 20260905222857 | 103 | 86 | 1.0 | 4.0 | 0.00 | 0.00 | 0.00 | 36 | 1051.7 |
| 20260905222356 | 101 | 99 | 1.0 | 3.0 | 0.00 | 0.00 | 0.00 | 37 | 1051.7 |
| 20260905221852 | 100 | 92 | 2.0 | 3.0 | 0.00 | 0.00 | 0.00 | 39 | 1051.8 |
| 20260905221349 | 98 | 79 | 3.0 | 4.0 | 0.00 | 0.00 | 0.00 | 39 | 1051.8 |
| 20260905220844 | 99 | 105 | 3.0 | 3.0 | 0.00 | 0.00 | 0.00 | 39 | 1051.9 |
| 20260905220341 | 99 | 135 | 0.0 | 2.0 | 0.00 | 0.00 | 0.00 | 39 | 1052.2 |
| 20260905215840 | 101 | 24 | 2.0 | 3.0 | 0.00 | 0.00 | 0.00 | 38 | 1052.3 |
| 20260905215336 | 102 | 224 | 0.0 | 2.0 | 0.00 | 0.00 | 0.00 | 37 | 1052.0 |
| 20260905214832 | 103 | 95 | 1.0 | 4.0 | 0.00 | 0.00 | 0.00 | 36 | 1052.1 |
| 20260905214332 | 104 | 5 | 1.0 | 9.0 | 0.00 | 0.00 | 0.00 | 35 | 1052.0 |
| 20260905213827 | 104 | 237 | 0.0 | 4.0 | 0.00 | 0.00 | 0.00 | 33 | 1052.0 |
| 20260905213323 | 104 | 277 | 3.0 | 4.0 | 0.00 | 0.00 | 0.00 | 32 | 1052.2 |
| 20260905212818 | 104 | 243 | 2.0 | 3.0 | 0.00 | 0.00 | 0.00 | 33 | 1051.9 |
| 20260905212318 | 103 | 253 | 2.0 | 6.0 | 0.00 | 0.00 | 0.00 | 34 | 1051.8 |
| 20260905211818 | 103 | 265 | 3.0 | 4.0 | 0.00 | 0.00 | 0.00 | 34 | 1052.0 |
| 20260905211313 | 103 | 269 | 0.0 | 4.0 | 0.00 | 0.00 | 0.00 | 35 | 1052.1 |
| 20260905210810 | 103 | 276 | 2.0 | 4.0 | 0.00 | 0.00 | 0.00 | 35 | 1052.1 |
| 20260905210309 | 105 | 38 | 0.0 | 2.0 | 0.00 | 0.00 | 0.00 | 33 | 1052.3 |
| 20260905205808 | 103 | 224 | 0.0 | 2.0 | 0.00 | 0.00 | 0.00 | 36 | 1052.6 |
| 20260905205306 | 101 | 133 | 0.0 | 1.0 | 0.00 | 0.00 | 0.00 | 36 | 1052.6 |
| 20260905204802 | 102 | 157 | 0.0 | 1.0 | 0.00 | 0.00 | 0.00 | 37 | 1052.7 |
| 20260905204259 | 101 | 71 | 1.0 | 4.0 | 0.00 | 0.00 | 0.00 | 37 | 1052.7 |
| 20260905203758 | 103 | 97 | 2.0 | 2.0 | 0.00 | 0.00 | 0.00 | 36 | 1052.8 |
| 20260905203253 | 104 | 35 | 0.0 | 7.0 | 0.00 | 0.00 | 0.00 | 34 | 1052.9 |
| 20260905202749 | 103 | 53 | 0.0 | 3.0 | 0.00 | 0.00 | 0.00 | 35 | 1052.7 |
| 20260905202244 | 103 | 142 | 0.0 | 3.0 | 0.00 | 0.00 | 0.00 | 35 | 1052.9 |
| 20260905201739 | 103 | 58 | 0.0 | 6.0 | 0.00 | 0.00 | 0.00 | 35 | 1052.9 |
| 20260905201234 | 103 | 141 | 4.0 | 8.0 | 0.00 | 0.00 | 0.00 | 35 | 1052.9 |
| 20260905200729 | 104 | 118 | 5.0 | 9.0 | 0.00 | 0.00 | 0.00 | 34 | 1053.0 |
| 20260905200225 | 104 | 49 | 4.0 | 10.0 | 0.00 | 0.00 | 0.00 | 34 | 1053.1 |
| 20260905195723 | 104 | 154 | 3.0 | 8.0 | 0.00 | 0.00 | 0.00 | 35 | 1053.3 |
| 20260905195218 | 105 | 108 | 5.0 | 7.0 | 0.00 | 0.00 | 0.00 | 34 | 1053.4 |
| 20260905194714 | 104 | 219 | 4.0 | 4.0 | 0.00 | 0.00 | 0.00 | 34 | 1053.1 |
| 20260905194213 | 107 | 211 | 1.0 | 2.0 | 0.00 | 0.00 | 0.00 | 33 | 1053.1 |
| 20260905193707 | 106 | 40 | 1.0 | 3.0 | 0.00 | 0.00 | 0.00 | 34 | 1053.5 |
| 20260905193202 | 105 | 253 | 2.0 | 4.0 | 0.00 | 0.00 | 0.00 | 34 | 1053.4 |
| 20260905192658 | 104 | 339 | 2.0 | 4.0 | 0.00 | 0.00 | 0.00 | 35 | 1053.7 |
| 20260905192154 | 103 | 261 | 1.0 | 9.0 | 0.00 | 0.00 | 0.00 | 36 | 1053.8 |
| 20260905191654 | 102 | 185 | 2.0 | 5.0 | 0.00 | 0.00 | 0.00 | 35 | 1053.5 |
| 20260905191151 | 102 | 200 | 2.0 | 5.0 | 0.00 | 0.00 | 0.00 | 36 | 1053.8 |
| 20260905190650 | 102 | 203 | 2.0 | 4.0 | 0.00 | 0.00 | 0.00 | 37 | 1053.8 |
| 20260905190149 | 102 | 241 | 3.0 | 3.0 | 0.00 | 0.00 | 0.00 | 36 | 1053.8 |
| 20260905185649 | 102 | 83 | 4.0 | 8.0 | 0.00 | 0.00 | 0.00 | 36 | 1054.0 |
| 20260905185143 | 103 | 122 | 4.0 | 7.0 | 0.00 | 0.00 | 0.00 | 37 | 1054.1 |
| 20260905184643 | 103 | 159 | 2.0 | 4.0 | 0.00 | 0.00 | 0.00 | 36 | 1054.0 |
| 20260905184142 | 101 | 150 | 6.0 | 13.0 | 0.00 | 0.00 | 0.00 | 38 | 1054.3 |
| 20260905183641 | 102 | 91 | 3.0 | 8.0 | 0.00 | 0.00 | 0.00 | 37 | 1054.1 |
| 20260905183137 | 103 | 95 | 4.0 | 6.0 | 0.00 | 0.00 | 0.00 | 37 | 1054.3 |
| 20260905182636 | 102 | 13 | 1.0 | 6.0 | 0.00 | 0.00 | 0.00 | 37 | 1054.5 |
| 20260905182136 | 101 | 104 | 4.0 | 5.0 | 0.00 | 0.00 | 0.00 | 38 | 1054.5 |
| 20260905181631 | 101 | 185 | 2.0 | 9.0 | 0.00 | 0.00 | 0.00 | 38 | 1054.5 |
| 20260905181130 | 102 | 136 | 7.0 | 12.0 | 0.00 | 0.00 | 0.00 | 38 | 1054.7 |
| 20260905180625 | 101 | 180 | 3.0 | 6.0 | 0.00 | 0.00 | 0.00 | 39 | 1054.7 |
| 20260905180121 | 102 | 150 | 2.0 | 3.0 | 0.00 | 0.00 | 0.00 | 38 | 1055.0 |
| 20260905175620 | 101 | 73 | 4.0 | 6.0 | 0.00 | 0.00 | 0.00 | 39 | 1054.8 |
| 20260905175116 | 98 | 104 | 0.0 | 2.0 | 0.00 | 0.00 | 0.00 | 41 | 1055.0 |
| 20260905174611 | 98 | 19 | 0.0 | 4.0 | 0.00 | 0.00 | 0.00 | 42 | 1055.0 |
| 20260905174106 | 98 | 113 | 0.0 | 1.0 | 0.00 | 0.00 | 0.00 | 42 | 1055.1 |
| 20260905173603 | 97 | 26 | 2.0 | 2.0 | 0.00 | 0.00 | 0.00 | 43 | 1055.2 |
| 20260905173058 | 97 | 269 | 1.0 | 2.0 | 0.00 | 0.00 | 0.00 | 41 | 1055.0 |
| 20260905172556 | 98 | 343 | 0.0 | 2.0 | 0.00 | 0.00 | 0.00 | 41 | 1055.3 |
| 20260905172052 | 98 | 74 | 0.0 | 2.0 | 0.00 | 0.00 | 0.00 | 43 | 1055.2 |
| 20260905171548 | 99 | 203 | 2.0 | 3.0 | 0.00 | 0.00 | 0.00 | 42 | 1055.4 |